Barnstead, New Hampshire
Current Conditions -  °F | °C
As of 3:35 PM on Friday 28 Nov 2014 (Local Time) from KLCI Reporting Station
Few Clouds Few Clouds  
Wind Chill: 27°   Ceiling: Unl
Heat Index: 27°   Visibility: 10mi
Dew Point: 16°   Wind: 3mph
Humidity: 64%   Direction: 250°WSW
Pressure: 30.04"   Gusts: NA
Location:  43.33°N, 71.29°W
Report Text: KLCI 282035Z AUTO 25003KT 10SM FEW050 M03/M09 A3004 RMK AO1
Loading
Personal Weather Stations






























Interactive Weather Map New forecast layout! Learn more

10-Day Weather Forecast

Advertisements
Track Severe Weather on mobile